createdAt,value
2019-04-06T00:01:01.919Z,2.39
2019-04-06T00:02:11.984Z,2.44
2019-04-06T00:03:21.902Z,2.44
2019-04-06T00:04:31.819Z,2.4
2019-04-06T00:05:41.771Z,2.37
2019-04-06T00:06:51.693Z,2.36
2019-04-06T00:08:01.619Z,2.36
2019-04-06T00:09:11.594Z,2.4
2019-04-06T00:10:21.656Z,2.37
2019-04-06T00:11:31.573Z,2.33
2019-04-06T00:12:41.504Z,2.39
2019-04-06T00:13:51.608Z,2.36
2019-04-06T00:15:01.648Z,2.23
2019-04-06T00:16:11.620Z,2.34
2019-04-06T00:17:21.541Z,2.32
2019-04-06T00:18:31.462Z,2.25
2019-04-06T00:19:41.506Z,2.34
2019-04-06T00:20:51.441Z,2.28
2019-04-06T00:22:01.377Z,2.3
2019-04-06T00:23:11.309Z,2.3
2019-04-06T00:24:21.294Z,2.21
2019-04-06T00:25:31.227Z,2.33
2019-04-06T00:26:51.792Z,2.36
2019-04-06T00:28:01.718Z,2.32
2019-04-06T00:29:11.705Z,2.36
2019-04-06T00:30:21.630Z,2.34
2019-04-06T00:31:31.690Z,2.21
2019-04-06T00:32:41.613Z,2.25
2019-04-06T00:33:51.581Z,2.18
2019-04-06T00:35:01.517Z,2.22
2019-04-06T00:36:11.486Z,2.22
2019-04-06T00:37:21.460Z,2.16
2019-04-06T00:38:33.708Z,2.3
2019-04-06T00:39:43.795Z,2.23
2019-04-06T00:40:53.779Z,2.25
2019-04-06T00:42:03.716Z,2.23
2019-04-06T00:43:13.662Z,2.22
2019-04-06T00:44:23.643Z,2.16
2019-04-06T00:45:33.569Z,2.23
2019-04-06T00:46:43.486Z,2.15
2019-04-06T00:47:53.427Z,2.08
2019-04-06T00:49:03.442Z,2.18
2019-04-06T00:50:13.438Z,2.16
2019-04-06T00:51:23.358Z,2.21
2019-04-06T00:52:33.278Z,2.21
2019-04-06T00:53:43.200Z,2.19
2019-04-06T00:54:53.230Z,2.22
2019-04-06T00:56:03.150Z,2.19
2019-04-06T00:57:13.084Z,2.25
2019-04-06T00:58:23.005Z,2.3
2019-04-06T00:59:33.039Z,2.19
2019-04-06T01:00:43.188Z,2.21
2019-04-06T01:01:53.239Z,2.25
2019-04-06T01:03:03.214Z,2.21
2019-04-06T01:04:13.133Z,2.16
2019-04-06T01:05:23.076Z,2.18
2019-04-06T01:06:33.096Z,2.21
2019-04-06T01:07:43.040Z,2.21
2019-04-06T01:08:52.965Z,2.28
2019-04-06T01:10:02.896Z,2.19
2019-04-06T01:11:12.838Z,2.19
2019-04-06T01:12:22.804Z,2.19
2019-04-06T01:13:32.731Z,2.18
2019-04-06T01:14:42.753Z,2.21
2019-04-06T01:15:52.687Z,2.12
2019-04-06T01:17:02.611Z,2.16
2019-04-06T01:18:12.870Z,2.16
2019-04-06T01:19:22.539Z,2.08
2019-04-06T01:20:32.607Z,2.16
2019-04-06T01:21:42.538Z,2.1
2019-04-06T01:22:52.469Z,2.01
2019-04-06T01:24:02.528Z,2.04
2019-04-06T01:25:12.485Z,2.03
2019-04-06T01:26:22.404Z,2.04
2019-04-06T01:27:32.323Z,2.1
2019-04-06T01:28:42.335Z,2.07
2019-04-06T01:29:52.364Z,2.01
2019-04-06T01:31:02.294Z,2.04
2019-04-06T01:32:12.227Z,2.01
2019-04-06T01:33:22.149Z,1.98
2019-04-06T01:34:32.175Z,1.97
2019-04-06T01:35:42.203Z,1.97
2019-04-06T01:36:52.140Z,2
2019-04-06T01:38:02.133Z,1.97
2019-04-06T01:39:12.068Z,2.01
2019-04-06T01:40:21.999Z,1.95
2019-04-06T01:41:31.972Z,1.97
2019-04-06T01:42:41.642Z,2.03
2019-04-06T01:43:51.561Z,2.03
2019-04-06T01:45:01.476Z,1.98
2019-04-06T01:46:11.393Z,2.01
2019-04-06T01:47:21.446Z,2.01
2019-04-06T01:48:31.372Z,1.97
2019-04-06T01:49:41.314Z,2.03
2019-04-06T01:50:51.240Z,1.95
2019-04-06T01:52:01.173Z,2.03
2019-04-06T01:53:11.216Z,1.97
2019-04-06T01:54:21.252Z,2.03
2019-04-06T01:55:31.182Z,2
2019-04-06T01:56:41.100Z,2.01
2019-04-06T01:57:51.274Z,1.98
2019-04-06T01:59:01.191Z,2.04
2019-04-06T02:00:11.188Z,1.97
2019-04-06T02:01:21.218Z,1.88
2019-04-06T02:02:31.141Z,1.98
2019-04-06T02:03:41.092Z,1.92
2019-04-06T02:04:51.063Z,1.93
2019-04-06T02:06:01.162Z,1.98
2019-04-06T02:07:11.085Z,1.89
2019-04-06T02:08:21.010Z,1.95
2019-04-06T02:09:30.948Z,1.93
2019-04-06T02:10:40.865Z,2
2019-04-06T02:11:50.791Z,2.04
2019-04-06T02:13:00.751Z,2
2019-04-06T02:14:10.749Z,1.97
2019-04-06T02:15:20.681Z,1.93
2019-04-06T02:16:30.449Z,1.93
2019-04-06T02:17:40.369Z,1.84
2019-04-06T02:18:50.367Z,1.86
2019-04-06T02:20:00.289Z,1.88
2019-04-06T02:21:10.055Z,1.95
2019-04-06T02:22:20.033Z,1.93
2019-04-06T02:23:29.994Z,1.92
2019-04-06T02:24:40.015Z,1.95
2019-04-06T02:25:49.953Z,1.92
2019-04-06T02:26:59.919Z,1.95
2019-04-06T02:28:09.700Z,1.95
2019-04-06T02:29:19.374Z,2
2019-04-06T02:30:29.375Z,2.04
2019-04-06T02:31:39.333Z,2
2019-04-06T02:32:49.511Z,1.92
2019-04-06T02:33:59.528Z,1.98
2019-04-06T02:35:09.517Z,1.97
2019-04-06T02:36:19.688Z,2.01
2019-04-06T02:37:29.723Z,1.89
2019-04-06T02:38:39.708Z,2.04
2019-04-06T02:39:49.870Z,1.97
2019-04-06T02:40:59.960Z,2.03
2019-04-06T02:42:09.937Z,1.97
2019-04-06T02:43:20.094Z,2.04
2019-04-06T02:44:30.101Z,1.95
2019-04-06T02:45:40.373Z,2.07
2019-04-06T02:46:50.334Z,2.07
2019-04-06T02:48:00.512Z,2.04
2019-04-06T02:49:10.517Z,2.04
2019-04-06T02:50:20.453Z,2.07
2019-04-06T02:51:30.530Z,2
2019-04-06T02:52:40.515Z,2.05
2019-04-06T02:53:50.447Z,2.03
2019-04-06T02:55:00.642Z,2.07
2019-04-06T02:56:10.664Z,2.08
2019-04-06T02:57:20.602Z,1.95
2019-04-06T02:58:30.672Z,2.03
2019-04-06T02:59:40.383Z,2.08
2019-04-06T03:00:50.344Z,1.95
2019-04-06T03:02:00.306Z,1.89
2019-04-06T03:03:10.412Z,1.97
2019-04-06T03:04:20.297Z,1.85
2019-04-06T03:05:30.246Z,1.84
2019-04-06T03:06:40.074Z,1.82
2019-04-06T03:07:49.998Z,1.84
2019-04-06T03:09:00.025Z,1.76
2019-04-06T03:10:10.106Z,1.61
2019-04-06T03:11:20.214Z,1.68
2019-04-06T03:12:30.189Z,1.56
2019-04-06T03:13:40.332Z,1.61
2019-04-06T03:14:50.590Z,1.56
2019-04-06T03:16:00.557Z,1.5
2019-04-06T03:17:10.661Z,1.52
2019-04-06T03:18:20.612Z,1.49
2019-04-06T03:19:30.685Z,1.52
2019-04-06T03:20:40.890Z,1.34
2019-04-06T03:21:51.136Z,1.42
2019-04-06T03:23:01.120Z,1.4
2019-04-06T03:24:11.061Z,1.32
2019-04-06T03:25:21.591Z,1.31
2019-04-06T03:26:31.615Z,1.32
2019-04-06T03:27:41.310Z,1.31
2019-04-06T03:28:51.300Z,1.32
2019-04-06T03:30:03.935Z,1.32
2019-04-06T03:31:14.776Z,1.31
2019-04-06T03:32:33.017Z,1.36
2019-04-06T03:33:43.495Z,1.42
2019-04-06T03:34:53.667Z,1.34
2019-04-06T03:36:04.262Z,1.32
2019-04-06T03:37:14.385Z,1.34
2019-04-06T03:38:24.142Z,1.48
2019-04-06T03:39:34.069Z,1.46
2019-04-06T03:40:44.426Z,1.5
2019-04-06T03:41:54.436Z,1.56
2019-04-06T03:43:04.499Z,1.53
2019-04-06T03:44:14.611Z,1.52
2019-04-06T03:45:24.094Z,1.53
2019-04-06T03:46:34.111Z,1.57
2019-04-06T03:47:44.363Z,1.52
2019-04-06T03:48:54.471Z,1.56
2019-04-06T03:50:04.532Z,1.58
2019-04-06T03:51:14.704Z,1.64
2019-04-06T03:52:24.862Z,1.58
2019-04-06T03:53:35.058Z,1.6
2019-04-06T03:54:44.989Z,1.67
2019-04-06T03:55:54.995Z,1.64
2019-04-06T03:57:19.209Z,1.63
2019-04-06T03:58:29.484Z,1.6
2019-04-06T03:59:39.152Z,1.6
2019-04-06T04:00:49.329Z,1.58
2019-04-06T04:01:59.257Z,1.58
2019-04-06T04:03:09.366Z,1.56
2019-04-06T04:04:19.329Z,1.58
2019-04-06T04:05:29.706Z,1.6
2019-04-06T04:06:39.682Z,1.64
2019-04-06T04:07:50.158Z,1.53
2019-04-06T04:09:00.144Z,1.57
2019-04-06T04:10:10.114Z,1.56
2019-04-06T04:11:20.197Z,1.5
2019-04-06T04:12:30.354Z,1.49
2019-04-06T04:13:40.335Z,1.53
2019-04-06T04:14:50.493Z,1.56
2019-04-06T04:16:02.171Z,1.57
2019-04-06T04:17:12.115Z,1.57
2019-04-06T04:18:21.909Z,1.56
2019-04-06T04:19:31.988Z,1.53
2019-04-06T04:20:41.934Z,1.5
2019-04-06T04:21:51.905Z,1.57
2019-04-06T04:23:02.153Z,1.58
2019-04-06T04:24:12.220Z,1.53
2019-04-06T04:25:22.460Z,1.57
2019-04-06T04:26:32.528Z,1.56
2019-04-06T04:27:42.940Z,1.56
2019-04-06T04:28:53.091Z,1.6
2019-04-06T04:30:03.137Z,1.58
2019-04-06T04:31:13.349Z,1.63
2019-04-06T04:32:23.758Z,1.63
2019-04-06T04:33:33.809Z,1.56
2019-04-06T04:34:43.777Z,1.66
2019-04-06T04:35:54.204Z,1.6
2019-04-06T04:37:04.719Z,1.64
2019-04-06T04:38:14.175Z,1.75
2019-04-06T04:39:24.107Z,1.68
2019-04-06T04:40:34.196Z,1.74
2019-04-06T04:41:45.163Z,1.63
2019-04-06T04:42:55.114Z,1.64
2019-04-06T04:44:05.390Z,1.68
2019-04-06T04:45:15.318Z,1.63
2019-04-06T04:46:25.481Z,1.75
2019-04-06T04:47:35.466Z,1.7
2019-04-06T04:48:45.754Z,1.71
2019-04-06T04:49:56.021Z,1.75
2019-04-06T04:51:06.001Z,1.84
2019-04-06T04:52:15.968Z,1.85
2019-04-06T04:53:26.385Z,1.82
2019-04-06T04:54:36.326Z,1.79
2019-04-06T04:55:46.397Z,1.85
2019-04-06T04:56:56.421Z,1.82
2019-04-06T04:58:06.342Z,1.85
2019-04-06T04:59:16.749Z,1.82
2019-04-06T05:00:26.934Z,1.84
2019-04-06T05:01:36.862Z,1.82
2019-04-06T05:02:46.881Z,1.79
2019-04-06T05:03:56.557Z,1.79
2019-04-06T05:05:06.579Z,1.88
2019-04-06T05:06:17.327Z,1.78
2019-04-06T05:07:27.441Z,1.89
2019-04-06T05:08:37.573Z,1.92
2019-04-06T05:09:47.491Z,1.89
2019-04-06T05:10:57.222Z,1.84
2019-04-06T05:12:07.137Z,1.89
2019-04-06T05:13:17.105Z,1.85
2019-04-06T05:14:27.096Z,1.88
2019-04-06T05:15:37.019Z,1.86
2019-04-06T05:16:47.048Z,1.88
2019-04-06T05:17:56.999Z,1.85
2019-04-06T05:19:06.931Z,1.95
2019-04-06T05:20:16.947Z,2.01
2019-04-06T05:21:29.139Z,2
2019-04-06T05:22:39.291Z,2.04
2019-04-06T05:23:49.207Z,1.98
2019-04-06T05:24:59.295Z,1.95
2019-04-06T05:26:09.544Z,2.01
2019-04-06T05:27:19.227Z,2.08
2019-04-06T05:28:29.276Z,2.15
2019-04-06T05:29:39.195Z,2.14
2019-04-06T05:30:49.072Z,2.04
2019-04-06T05:31:58.999Z,2.1
2019-04-06T05:33:09.307Z,2.04
2019-04-06T05:34:19.226Z,2.03
2019-04-06T05:35:29.184Z,2.05
2019-04-06T05:36:39.242Z,2.07
2019-04-06T05:37:49.179Z,2.12
2019-04-06T05:38:59.134Z,2.05
2019-04-06T05:40:09.111Z,2.07
2019-04-06T05:41:19.039Z,2.05
2019-04-06T05:42:28.964Z,2.08
2019-04-06T05:43:38.917Z,2.07
2019-04-06T05:44:48.922Z,2.1
2019-04-06T05:45:58.848Z,2.14
2019-04-06T05:47:08.692Z,2.08
2019-04-06T05:48:18.631Z,2.03
2019-04-06T05:49:28.667Z,2.05
2019-04-06T05:50:38.595Z,2.05
2019-04-06T05:51:48.538Z,2.04
2019-04-06T05:52:58.457Z,2.03
2019-04-06T05:54:08.380Z,2.07
2019-04-06T05:55:18.432Z,1.95
2019-04-06T05:56:29.983Z,2.08
2019-04-06T05:57:42.328Z,2.01
2019-04-06T05:58:52.415Z,2.08
2019-04-06T06:00:02.356Z,2.04
2019-04-06T06:01:16.306Z,2
2019-04-06T06:02:26.302Z,2.04
2019-04-06T06:03:40.076Z,1.95
2019-04-06T06:04:50.355Z,2.05
2019-04-06T06:06:00.437Z,2.14
2019-04-06T06:07:10.524Z,2.15
2019-04-06T06:08:20.441Z,2.07
2019-04-06T06:09:30.463Z,2.07
2019-04-06T06:10:40.918Z,2.07
2019-04-06T06:11:50.856Z,2.05
2019-04-06T06:13:03.468Z,2.08
2019-04-06T06:14:13.402Z,2.01
2019-04-06T06:15:23.377Z,2.08
2019-04-06T06:16:33.298Z,2.12
2019-04-06T06:17:43.584Z,2.08
2019-04-06T06:18:53.743Z,2.14
2019-04-06T06:20:03.662Z,2.05
2019-04-06T06:21:13.633Z,2
2019-04-06T06:22:23.708Z,2.08
2019-04-06T06:23:33.723Z,2.14
2019-04-06T06:24:43.651Z,2.15
2019-04-06T06:25:53.894Z,2.14
2019-04-06T06:27:03.829Z,2.19
2019-04-06T06:28:19.442Z,2.21
2019-04-06T06:29:29.418Z,2.25
2019-04-06T06:30:39.336Z,2.23
2019-04-06T06:31:49.435Z,2.36
2019-04-06T06:32:59.291Z,2.23
2019-04-06T06:34:09.364Z,2.39
2019-04-06T06:35:19.284Z,2.37
2019-04-06T06:36:29.298Z,2.41
2019-04-06T06:37:39.226Z,2.5
2019-04-06T06:38:49.484Z,2.55
2019-04-06T06:39:59.415Z,2.59
2019-04-06T06:41:09.356Z,2.62
2019-04-06T06:42:19.535Z,2.72
2019-04-06T06:43:29.463Z,2.79
2019-04-06T06:44:39.484Z,2.76
2019-04-06T06:45:49.683Z,2.85
2019-04-06T06:46:59.862Z,2.98
2019-04-06T06:48:10.043Z,2.95
2019-04-06T06:49:20.037Z,2.94
2019-04-06T06:50:30.248Z,3.03
2019-04-06T06:51:42.232Z,3.21
2019-04-06T06:52:52.244Z,3.16
2019-04-06T06:54:02.287Z,3.46
2019-04-06T06:55:12.819Z,3.43
2019-04-06T06:56:22.737Z,3.61
2019-04-06T06:57:33.083Z,3.63
2019-04-06T06:58:43.001Z,3.59
2019-04-06T06:59:52.938Z,3.68
2019-04-06T07:01:03.258Z,3.82
2019-04-06T07:02:13.706Z,3.92
2019-04-06T07:03:23.642Z,3.96
2019-04-06T07:04:33.571Z,4.02
2019-04-06T07:05:43.487Z,4.03
2019-04-06T07:06:53.428Z,4.12
2019-04-06T07:08:03.409Z,4.16
2019-04-06T07:09:13.328Z,4.1
2019-04-06T07:10:23.248Z,4.21
2019-04-06T07:11:33.192Z,4.28
2019-04-06T07:12:43.157Z,4.18
2019-04-06T07:13:53.720Z,4.21
2019-04-06T07:15:03.713Z,4.34
2019-04-06T07:16:13.772Z,4.32
2019-04-06T07:17:23.697Z,4.45
2019-04-06T07:18:33.365Z,4.48
2019-04-06T07:19:43.387Z,4.42
2019-04-06T07:20:53.740Z,4.57
2019-04-06T07:22:03.836Z,4.57
2019-04-06T07:23:13.518Z,4.48
2019-04-06T07:24:23.436Z,4.61
2019-04-06T07:25:33.548Z,4.58
2019-04-06T07:26:45.933Z,4.63
2019-04-06T07:27:55.798Z,4.67
2019-04-06T07:29:05.699Z,4.64
2019-04-06T07:30:15.862Z,4.68
2019-04-06T07:31:26.016Z,4.63
2019-04-06T07:32:36.242Z,4.61
2019-04-06T07:33:46.170Z,4.58
2019-04-06T07:34:56.100Z,4.61
2019-04-06T07:36:06.172Z,4.61
2019-04-06T07:37:16.099Z,4.57
2019-04-06T07:38:26.322Z,4.6
2019-04-06T07:39:36.240Z,4.68
2019-04-06T07:40:46.259Z,4.76
2019-04-06T07:41:56.382Z,4.71
2019-04-06T07:43:07.014Z,4.78
2019-04-06T07:44:17.117Z,4.86
2019-04-06T07:45:27.038Z,4.89
2019-04-06T07:46:37.252Z,4.98
2019-04-06T07:47:47.520Z,5.02
2019-04-06T07:49:07.704Z,5.04
2019-04-06T07:50:18.414Z,5.18
2019-04-06T07:51:28.339Z,5.26
2019-04-06T07:52:38.257Z,5.23
2019-04-06T07:53:48.374Z,5.33
2019-04-06T07:54:58.393Z,5.41
2019-04-06T07:56:08.492Z,5.51
2019-04-06T07:57:18.805Z,5.55
2019-04-06T07:58:28.779Z,5.64
2019-04-06T07:59:38.932Z,5.79
2019-04-06T08:00:48.878Z,5.9
2019-04-06T08:01:59.048Z,5.87
2019-04-06T08:03:09.582Z,6.01
2019-04-06T08:04:19.630Z,6.1
2019-04-06T08:05:29.874Z,6.15
2019-04-06T08:06:39.874Z,6.16
2019-04-06T08:07:50.243Z,6.26
2019-04-06T08:09:00.507Z,6.26
2019-04-06T08:10:10.503Z,6.16
2019-04-06T08:11:20.622Z,6.16
2019-04-06T08:12:30.718Z,6.26
2019-04-06T08:13:40.883Z,6.2
2019-04-06T08:14:50.645Z,6.17
2019-04-06T08:16:03.266Z,6.17
2019-04-06T08:17:13.332Z,6.26
2019-04-06T08:18:23.257Z,6.28
2019-04-06T08:19:33.130Z,6.32
2019-04-06T08:20:43.048Z,6.34
2019-04-06T08:21:53.032Z,6.32
2019-04-06T08:23:03.371Z,6.41
2019-04-06T08:24:13.400Z,6.46
2019-04-06T08:25:23.694Z,6.5
2019-04-06T08:26:33.418Z,6.5
2019-04-06T08:27:43.766Z,6.62
2019-04-06T08:29:05.260Z,6.62
2019-04-06T08:30:15.192Z,6.6
2019-04-06T08:31:25.275Z,6.52
2019-04-06T08:32:35.279Z,6.57
2019-04-06T08:33:45.656Z,6.7
2019-04-06T08:34:55.731Z,6.6
2019-04-06T08:36:05.832Z,6.6
2019-04-06T08:37:15.842Z,6.54
2019-04-06T08:38:26.100Z,6.62
2019-04-06T08:39:35.948Z,6.65
2019-04-06T08:40:45.987Z,6.67
2019-04-06T08:41:56.016Z,6.62
2019-04-06T08:43:06.061Z,6.67
2019-04-06T08:44:16.177Z,6.64
2019-04-06T08:45:26.095Z,6.62
2019-04-06T08:46:36.148Z,6.56
2019-04-06T08:47:46.085Z,6.65
2019-04-06T08:48:56.043Z,6.59
2019-04-06T08:50:06.452Z,6.71
2019-04-06T08:51:17.082Z,6.72
2019-04-06T08:52:27.253Z,6.74
2019-04-06T08:53:37.369Z,6.87
2019-04-06T08:54:47.495Z,7.03
2019-04-06T08:55:57.424Z,7.11
2019-04-06T08:57:07.700Z,7.19
2019-04-06T08:58:17.893Z,7.31
2019-04-06T08:59:27.983Z,7.36
2019-04-06T09:00:38.071Z,7.4
2019-04-06T09:01:47.997Z,7.53
2019-04-06T09:02:58.036Z,7.7
2019-04-06T09:04:07.937Z,7.81
2019-04-06T09:05:18.106Z,7.88
2019-04-06T09:06:28.033Z,8.01
2019-04-06T09:07:40.643Z,7.99
2019-04-06T09:08:51.229Z,8.23
2019-04-06T09:10:01.283Z,8.27
2019-04-06T09:11:11.486Z,8.24
2019-04-06T09:12:21.413Z,8.32
2019-04-06T09:13:31.342Z,8.41
2019-04-06T09:14:41.288Z,8.5
2019-04-06T09:15:51.236Z,8.56
2019-04-06T09:17:01.641Z,8.66
2019-04-06T09:18:11.329Z,8.77
2019-04-06T09:19:21.158Z,8.82
2019-04-06T09:20:31.351Z,8.77
2019-04-06T09:21:41.476Z,8.79
2019-04-06T09:22:51.878Z,8.9
2019-04-06T09:24:04.287Z,8.97
2019-04-06T09:25:14.216Z,8.93
2019-04-06T09:26:24.587Z,9.05
2019-04-06T09:27:34.553Z,9.02
2019-04-06T09:28:44.702Z,9.08
2019-04-06T09:29:54.775Z,8.99
2019-04-06T09:31:04.621Z,9.02
2019-04-06T09:32:14.602Z,8.96
2019-04-06T09:33:24.536Z,9.02
2019-04-06T09:34:36.283Z,8.99
2019-04-06T09:35:46.288Z,9.02
2019-04-06T09:36:56.547Z,9.08
2019-04-06T09:38:06.759Z,9
2019-04-06T09:39:16.693Z,9
2019-04-06T09:40:27.930Z,8.92
2019-04-06T09:41:38.043Z,8.93
2019-04-06T09:42:47.965Z,8.89
2019-04-06T09:43:57.690Z,8.9
2019-04-06T09:45:07.624Z,8.87
2019-04-06T09:46:18.177Z,8.89
2019-04-06T09:47:31.114Z,8.82
2019-04-06T09:48:41.046Z,8.9
2019-04-06T09:49:51.293Z,8.89
2019-04-06T09:51:01.218Z,9
2019-04-06T09:52:11.567Z,9.02
2019-04-06T09:53:21.761Z,8.99
2019-04-06T09:54:31.725Z,9.11
2019-04-06T09:55:42.085Z,9.08
2019-04-06T09:56:52.008Z,9.18
2019-04-06T09:58:02.281Z,9.12
2019-04-06T09:59:12.448Z,9.29
2019-04-06T10:00:22.586Z,9.31
2019-04-06T10:01:42.948Z,9.49
2019-04-06T10:02:52.621Z,9.37
2019-04-06T10:04:02.547Z,9.55
2019-04-06T10:05:12.730Z,9.56
2019-04-06T10:06:23.174Z,9.63
2019-04-06T10:07:33.357Z,9.54
2019-04-06T10:08:43.543Z,9.56
2019-04-06T10:09:53.703Z,9.62
2019-04-06T10:11:03.760Z,9.59
2019-04-06T10:12:13.690Z,9.69
2019-04-06T10:13:23.723Z,9.64
2019-04-06T10:14:34.040Z,9.73
2019-04-06T10:15:44.048Z,9.8
2019-04-06T10:16:54.081Z,9.8
2019-04-06T10:18:04.275Z,9.77
2019-04-06T10:19:14.611Z,9.76
2019-04-06T10:20:24.580Z,9.64
2019-04-06T10:21:35.073Z,9.63
2019-04-06T10:22:45.393Z,9.7
2019-04-06T10:23:55.624Z,9.81
2019-04-06T10:25:05.664Z,9.72
2019-04-06T10:26:18.485Z,9.8
2019-04-06T10:27:28.718Z,9.73
2019-04-06T10:28:38.647Z,9.64
2019-04-06T10:29:54.379Z,9.52
2019-04-06T10:31:04.874Z,9.52
2019-04-06T10:32:14.936Z,9.31
2019-04-06T10:33:24.785Z,9.36
2019-04-06T10:34:34.993Z,9.22
2019-04-06T10:35:44.948Z,9.29
2019-04-06T10:36:55.284Z,9.13
2019-04-06T10:38:04.966Z,9.05
2019-04-06T10:39:15.245Z,9.09
2019-04-06T10:40:25.177Z,9.09
2019-04-06T10:41:35.302Z,9
2019-04-06T10:42:45.418Z,9
2019-04-06T10:43:55.616Z,9.09
2019-04-06T10:45:05.548Z,8.86
2019-04-06T10:46:16.019Z,8.9
2019-04-06T10:47:26.256Z,8.68
2019-04-06T10:48:36.214Z,8.74
2019-04-06T10:49:46.142Z,8.74
2019-04-06T10:50:56.212Z,8.68
2019-04-06T10:52:06.178Z,8.74
2019-04-06T10:53:15.884Z,8.75
2019-04-06T10:54:26.487Z,8.71
2019-04-06T10:55:36.476Z,8.74
2019-04-06T10:56:46.726Z,8.74
2019-04-06T10:57:56.708Z,8.75
2019-04-06T10:59:08.175Z,8.64
2019-04-06T11:00:18.116Z,8.6
2019-04-06T11:01:29.002Z,8.6
2019-04-06T11:02:39.153Z,8.72
2019-04-06T11:03:49.261Z,8.71
2019-04-06T11:04:59.184Z,8.81
2019-04-06T11:06:09.645Z,8.77
2019-04-06T11:07:19.587Z,8.77
2019-04-06T11:08:29.689Z,8.9
2019-04-06T11:09:39.676Z,8.97
2019-04-06T11:10:49.720Z,9.09
2019-04-06T11:11:59.912Z,9.27
2019-04-06T11:13:09.843Z,9.51
2019-04-06T11:14:20.200Z,9.66
2019-04-06T11:15:30.426Z,9.85
2019-04-06T11:16:40.866Z,10.13
2019-04-06T11:17:53.550Z,10.38
2019-04-06T11:19:03.872Z,10.75
2019-04-06T11:20:13.773Z,11.18
2019-04-06T11:21:24.015Z,11.49
2019-04-06T11:22:34.005Z,11.89
2019-04-06T11:23:44.368Z,12.3
2019-04-06T11:24:54.295Z,12.81
2019-04-06T11:26:04.219Z,13.17
2019-04-06T11:27:14.155Z,13.64
2019-04-06T11:28:24.084Z,13.79
2019-04-06T11:29:34.241Z,14.12
2019-04-06T11:30:44.304Z,14.28
2019-04-06T11:31:54.629Z,14.52
2019-04-06T11:33:04.844Z,14.71
2019-04-06T11:34:14.912Z,15.25
2019-04-06T11:35:27.549Z,15.59
2019-04-06T11:36:37.741Z,15.48
2019-04-06T11:37:48.243Z,15.33
2019-04-06T11:38:58.437Z,15.23
2019-04-06T11:40:08.977Z,14.74
2019-04-06T11:41:19.189Z,14.79
2019-04-06T11:42:29.231Z,14.74
2019-04-06T11:43:39.198Z,14.71
2019-04-06T11:44:49.422Z,15.11
2019-04-06T11:45:59.400Z,15.48
2019-04-06T11:47:10.013Z,15.81
2019-04-06T11:48:20.455Z,15.96
2019-04-06T11:49:30.386Z,16.25
2019-04-06T11:50:40.457Z,16.51
2019-04-06T11:51:50.389Z,16.79
2019-04-06T11:53:00.328Z,17.04
2019-04-06T11:54:10.417Z,17.09
2019-04-06T11:55:20.579Z,17.32
2019-04-06T11:56:30.600Z,17.49
2019-04-06T11:57:40.810Z,17.73
2019-04-06T11:58:50.854Z,17.65
2019-04-06T12:00:00.949Z,17.66
2019-04-06T12:01:11.151Z,17.78
2019-04-06T12:02:21.116Z,18.03
2019-04-06T12:03:30.797Z,18.11
2019-04-06T12:04:40.863Z,18
2019-04-06T12:05:50.567Z,18.03
2019-04-06T12:07:03.338Z,18.05
2019-04-06T12:08:13.542Z,17.9
2019-04-06T12:09:23.832Z,18.02
2019-04-06T12:10:33.542Z,18.24
2019-04-06T12:11:43.967Z,18.41
2019-04-06T12:12:55.736Z,18.41
2019-04-06T12:14:06.796Z,18.55
2019-04-06T12:15:16.737Z,18.78
2019-04-06T12:16:27.269Z,19.01
2019-04-06T12:17:37.154Z,19.17
2019-04-06T12:18:47.495Z,19.24
2019-04-06T12:19:57.556Z,19.64
2019-04-06T12:21:07.599Z,19.82
2019-04-06T12:22:17.621Z,19.93
2019-04-06T12:23:27.680Z,19.93
2019-04-06T12:24:40.767Z,20.14
2019-04-06T12:25:51.517Z,20.24
2019-04-06T12:27:01.571Z,20.32
2019-04-06T12:28:11.743Z,20.52
2019-04-06T12:29:21.978Z,20.71
2019-04-06T12:30:42.604Z,20.98
2019-04-06T12:31:52.589Z,21.05
2019-04-06T12:33:02.843Z,21.4
2019-04-06T12:34:12.891Z,21.65
2019-04-06T12:35:22.848Z,21.83
2019-04-06T12:36:32.783Z,21.89
2019-04-06T12:37:42.853Z,22.04
2019-04-06T12:38:52.970Z,22.03
2019-04-06T12:40:02.909Z,21.97
2019-04-06T12:41:13.854Z,21.91
2019-04-06T12:42:24.066Z,22.18
2019-04-06T12:43:36.681Z,21.91
2019-04-06T12:44:46.798Z,22.1
2019-04-06T12:45:57.425Z,22.21
2019-04-06T12:47:07.837Z,22.36
2019-04-06T12:48:18.563Z,22.38
2019-04-06T12:49:28.534Z,22.44
2019-04-06T12:50:38.660Z,22.51
2019-04-06T12:51:48.738Z,22.37
2019-04-06T12:52:59.103Z,22.51
2019-04-06T12:54:09.321Z,22.71
2019-04-06T12:55:19.559Z,22.92
2019-04-06T12:56:30.043Z,23.1
2019-04-06T12:57:40.011Z,23.33
2019-04-06T12:58:50.315Z,23.48
2019-04-06T13:00:00.782Z,23.59
2019-04-06T13:01:10.938Z,23.81
2019-04-06T13:02:21.282Z,23.92
2019-04-06T13:03:31.387Z,24.04
2019-04-06T13:04:41.987Z,24.21
2019-04-06T13:05:51.962Z,24.1
2019-04-06T13:07:01.710Z,24.34
2019-04-06T13:08:12.016Z,24.36
2019-04-06T13:09:21.970Z,24.47
2019-04-06T13:10:31.912Z,24.68
2019-04-06T13:11:42.458Z,24.66
2019-04-06T13:12:52.409Z,24.84
2019-04-06T13:14:03.200Z,24.85
2019-04-06T13:15:13.198Z,24.78
2019-04-06T13:16:25.853Z,24.84
2019-04-06T13:17:36.120Z,24.61
2019-04-06T13:18:46.403Z,24.75
2019-04-06T13:19:56.760Z,24.84
2019-04-06T13:21:07.079Z,24.94
2019-04-06T13:22:17.156Z,24.99
2019-04-06T13:23:27.117Z,24.92
2019-04-06T13:24:37.182Z,25
2019-04-06T13:25:47.571Z,25.14
2019-04-06T13:26:57.659Z,25.11
2019-04-06T13:28:08.025Z,25.21
2019-04-06T13:29:18.364Z,25.29
2019-04-06T13:30:28.694Z,25.29
2019-04-06T13:31:38.796Z,25.3
2019-04-06T13:32:48.753Z,25.12
2019-04-06T13:33:59.190Z,25.04
2019-04-06T13:35:09.208Z,24.97
2019-04-06T13:36:19.480Z,25.01
2019-04-06T13:37:29.549Z,24.94
2019-04-06T13:38:39.982Z,25.12
2019-04-06T13:39:49.939Z,24.85
2019-04-06T13:41:00.151Z,24.77
2019-04-06T13:42:10.218Z,24.13
2019-04-06T13:43:20.626Z,22.71
2019-04-06T13:44:30.881Z,22.06
2019-04-06T13:45:40.826Z,22.43
2019-04-06T13:46:51.546Z,22.62
2019-04-06T13:48:04.812Z,21.99
2019-04-06T13:49:14.808Z,20.74
2019-04-06T13:50:25.393Z,19.45
2019-04-06T13:51:35.650Z,18.19
2019-04-06T13:52:45.900Z,17.14
2019-04-06T13:53:56.127Z,16.49
2019-04-06T13:55:06.399Z,15.88
2019-04-06T13:56:16.648Z,15.23
2019-04-06T13:57:26.998Z,14.85
2019-04-06T13:58:36.867Z,14.56
2019-04-06T13:59:46.901Z,14.16
2019-04-06T14:00:56.855Z,14.05
2019-04-06T14:02:20.671Z,13.79
2019-04-06T14:03:30.616Z,13.23
2019-04-06T14:04:42.095Z,13.5
2019-04-06T14:05:52.032Z,13.83
2019-04-06T14:07:02.765Z,14.25
2019-04-06T14:08:13.152Z,14.68
2019-04-06T14:09:23.583Z,15.32
2019-04-06T14:10:33.616Z,15.8
2019-04-06T14:11:43.980Z,16.05
2019-04-06T14:12:53.726Z,16.37
2019-04-06T14:14:04.225Z,16.5
2019-04-06T14:15:14.575Z,17.02
2019-04-06T14:16:24.860Z,17.41
2019-04-06T14:17:35.507Z,17.53
2019-04-06T14:18:45.453Z,17.65
2019-04-06T14:19:55.396Z,17.84
2019-04-06T14:21:05.767Z,17.42
2019-04-06T14:22:15.595Z,17.01
2019-04-06T14:23:26.346Z,16.65
2019-04-06T14:24:36.417Z,16.87
2019-04-06T14:25:46.690Z,16.94
2019-04-06T14:26:59.058Z,17.16
2019-04-06T14:28:11.759Z,16.49
2019-04-06T14:29:22.019Z,17.1
2019-04-06T14:30:32.721Z,16.92
2019-04-06T14:31:43.082Z,16.91
2019-04-06T14:32:53.497Z,16.84
2019-04-06T14:34:04.095Z,17.1
2019-04-06T14:35:14.089Z,17.39
2019-04-06T14:36:24.381Z,17.65
2019-04-06T14:37:35.054Z,16.77
2019-04-06T14:38:44.998Z,16.97
2019-04-06T14:39:55.451Z,17.5
2019-04-06T14:41:05.632Z,17.39
2019-04-06T14:42:15.340Z,17.8
2019-04-06T14:43:25.033Z,18.21
2019-04-06T14:44:35.308Z,18.42
2019-04-06T14:45:45.719Z,18.82
2019-04-06T14:46:55.797Z,18.89
2019-04-06T14:48:06.272Z,19.15
2019-04-06T14:49:35.561Z,19.55
2019-04-06T14:50:45.613Z,19.34
2019-04-06T14:51:55.911Z,19.84
2019-04-06T14:53:06.242Z,20.18
2019-04-06T14:54:17.168Z,20.6
2019-04-06T14:55:27.177Z,20.9
2019-04-06T14:56:37.429Z,20.71
2019-04-06T14:57:47.879Z,19.07
2019-04-06T14:58:58.379Z,19.08
2019-04-06T15:00:09.016Z,19.11
2019-04-06T15:01:19.010Z,19.19
2019-04-06T15:02:29.706Z,19.17
2019-04-06T15:03:40.384Z,19
2019-04-06T15:04:50.362Z,18.15
2019-04-06T15:06:00.679Z,18.19
2019-04-06T15:07:17.164Z,17.17
2019-04-06T15:08:27.145Z,16.74
2019-04-06T15:09:37.823Z,16.26
2019-04-06T15:10:47.770Z,15.99
2019-04-06T15:11:58.330Z,16.21
2019-04-06T15:13:08.286Z,15.96
2019-04-06T15:14:19.058Z,16.43
2019-04-06T15:15:29.824Z,16.28
2019-04-06T15:16:39.760Z,16.43
2019-04-06T15:17:50.604Z,16.12
2019-04-06T15:19:03.958Z,15.39
2019-04-06T15:20:13.901Z,14.82
2019-04-06T15:21:23.850Z,14.53
2019-04-06T15:22:34.278Z,14.67
2019-04-06T15:23:44.562Z,14.86
2019-04-06T15:24:54.507Z,14.9
2019-04-06T15:26:04.341Z,14.85
2019-04-06T15:27:14.752Z,14.45
2019-04-06T15:28:24.694Z,14.16
2019-04-06T15:29:34.935Z,13.75
2019-04-06T15:30:45.123Z,13.62
2019-04-06T15:31:56.576Z,13.61
2019-04-06T15:33:06.860Z,13.42